Time;durP1;ratioP1;P1;durP2;ratioP2;P2;SDS_P1;SDS_P2;PMS_P1;PMS_P2;Temp;Humidity;BMP_temperature;BMP_pressure;BME280_temperature;BME280_humidity;BME280_pressure;Samples;Min_cycle;Max_cycle;Signal;HPM_P1;HPM_P2
2024/04/07 00:02:11;;;;;;;8.77;2.22;;;;;;;20.63;55.67;100965.69;5009843;28;20030;-42
2024/04/07 00:04:37;;;;;;;12.27;2.15;;;;;;;20.50;56.24;100959.84;5008764;28;20120;-41
2024/04/07 00:07:03;;;;;;;7.88;2.33;;;;;;;20.42;56.82;100966.28;5009431;28;20137;-42
2024/04/07 00:09:28;;;;;;;10.18;2.20;;;;;;;20.43;57.00;100962.72;5009863;28;20038;-43
2024/04/07 00:11:54;;;;;;;10.23;2.40;;;;;;;20.42;57.67;100964.50;4991833;28;20522;-40
2024/04/07 00:14:19;;;;;;;11.88;2.15;;;;;;;20.21;58.81;100967.63;4992551;28;20034;-42
2024/04/07 00:16:45;;;;;;;12.88;2.50;;;;;;;20.27;58.56;100988.66;4992354;28;20412;-40
2024/04/07 00:19:10;;;;;;;8.30;2.38;;;;;;;20.44;58.48;100994.44;5011182;28;20128;-41
2024/04/07 00:21:35;;;;;;;6.63;2.30;;;;;;;20.40;59.42;100997.22;5010673;28;20485;-41
2024/04/07 00:24:01;;;;;;;7.90;2.70;;;;;;;20.27;61.44;101009.84;5011198;28;20023;-40
2024/04/07 00:26:26;;;;;;;7.97;2.53;;;;;;;19.92;63.38;101023.91;4992456;28;20050;-41
2024/04/07 00:28:51;;;;;;;9.40;2.50;;;;;;;19.66;65.70;101027.13;5010259;28;20042;-44
2024/04/07 00:31:17;;;;;;;12.50;2.65;;;;;;;20.14;64.79;101025.16;5009624;28;20041;-40
2024/04/07 00:33:42;;;;;;;9.38;2.70;;;;;;;19.75;65.75;101031.38;5009694;28;20034;-42
2024/04/07 00:36:09;;;;;;;9.02;2.40;;;;;;;19.29;67.76;101032.28;4993538;28;20554;-40
2024/04/07 00:38:34;;;;;;;10.18;2.58;;;;;;;19.40;67.01;101039.97;5010314;28;20082;-42
2024/04/07 00:41:00;;;;;;;7.47;2.33;;;;;;;18.95;69.44;101060.25;5010090;28;20030;-42
2024/04/07 00:43:27;;;;;;;9.15;2.78;;;;;;;18.94;70.03;101080.50;5009803;28;20030;-41
2024/04/07 00:45:55;;;;;;;10.85;2.70;;;;;;;19.10;69.36;101093.44;5009400;28;20059;-40
2024/04/07 00:48:21;;;;;;;10.73;2.90;;;;;;;18.94;70.10;101090.19;5011776;28;20116;-43
2024/04/07 00:50:49;;;;;;;8.55;2.60;;;;;;;19.17;69.60;101087.13;4994967;28;20515;-41
2024/04/07 00:53:15;;;;;;;13.57;3.35;;;;;;;18.90;70.50;101080.59;4995274;28;20030;-41
2024/04/07 00:55:41;;;;;;;11.40;3.15;;;;;;;19.27;69.32;101083.44;5011432;28;20045;-42
2024/04/07 00:58:11;;;;;;;11.38;3.00;;;;;;;19.04;70.35;101083.84;5012510;28;20065;-42
2024/04/07 01:00:37;;;;;;;8.27;3.03;;;;;;;19.17;69.93;101066.88;5011942;28;20065;-42
2024/04/07 01:03:03;;;;;;;7.63;2.42;;;;;;;19.29;69.35;101064.00;5012413;28;20496;-41
2024/04/07 01:05:40;;;;;;;11.77;2.58;;;;;;;19.05;69.47;101072.38;5011969;28;20065;-42
2024/04/07 01:08:07;;;;;;;8.88;2.70;;;;;;;18.55;71.13;101074.13;5012128;28;20035;-42
2024/04/07 01:10:32;;;;;;;9.02;2.60;;;;;;;18.52;71.49;101057.44;5011935;28;20481;-41
2024/04/07 01:12:58;;;;;;;9.20;2.38;;;;;;;19.04;70.81;101063.56;5012555;28;20164;-43
2024/04/07 01:15:23;;;;;;;13.55;2.80;;;;;;;19.05;71.11;101057.41;5012182;28;20026;-41
2024/04/07 01:17:48;;;;;;;9.82;2.70;;;;;;;18.91;71.46;101054.13;5011936;28;20042;-42
2024/04/07 01:20:15;;;;;;;7.85;2.33;;;;;;;18.47;73.73;101061.91;5012592;28;20030;-42
2024/04/07 01:22:41;;;;;;;11.02;2.33;;;;;;;18.76;72.41;101050.91;5011851;28;20412;-42
2024/04/07 01:25:06;;;;;;;5.78;1.80;;;;;;;18.73;72.55;101057.09;5012595;28;20136;-41
2024/04/07 01:27:32;;;;;;;8.23;2.28;;;;;;;18.80;71.91;101064.03;5013450;28;20073;-40
2024/04/07 01:29:57;;;;;;;7.78;2.30;;;;;;;19.02;71.40;101062.75;5014161;28;20037;-40
2024/04/07 01:32:22;;;;;;;8.43;2.38;;;;;;;19.19;70.65;101049.22;5013632;28;20045;-43
2024/04/07 01:34:48;;;;;;;7.68;2.20;;;;;;;18.99;71.67;101060.16;5012296;28;20037;-41
2024/04/07 01:37:14;;;;;;;6.95;2.10;;;;;;;18.92;71.94;101062.94;5013093;28;20164;-44
2024/04/07 01:39:39;;;;;;;6.90;2.10;;;;;;;19.06;71.58;101068.84;5012669;28;20404;-43
2024/04/07 01:42:05;;;;;;;6.65;2.28;;;;;;;18.74;73.40;101058.84;5012185;28;20042;-43
2024/04/07 01:44:30;;;;;;;5.80;2.40;;;;;;;18.93;72.87;101084.03;5011700;28;20088;-42
2024/04/07 01:46:55;;;;;;;6.95;2.40;;;;;;;18.48;74.84;101088.28;5011532;28;20045;-40
2024/04/07 01:49:21;;;;;;;6.47;2.00;;;;;;;18.59;74.32;101067.91;5013015;28;20065;-41
2024/04/07 01:51:46;;;;;;;5.45;2.00;;;;;;;18.55;74.49;101063.56;5012240;28;20117;-41
2024/04/07 01:54:12;;;;;;;7.18;1.90;;;;;;;18.89;72.97;101058.59;5011844;28;20100;-41
2024/04/07 01:56:37;;;;;;;5.15;1.92;;;;;;;18.46;74.42;101055.75;5011273;28;20506;-42
2024/04/07 01:59:03;;;;;;;5.35;1.88;;;;;;;18.59;73.62;101043.28;5010850;28;20034;-40
2024/04/07 02:01:29;;;;;;;6.40;1.73;;;;;;;18.35;74.90;101052.44;5011205;28;20038;-40
2024/04/07 02:03:54;;;;;;;6.38;1.80;;;;;;;18.63;73.66;101045.81;5010461;28;20091;-41
2024/04/07 02:06:20;;;;;;;6.70;1.60;;;;;;;18.47;73.75;101019.69;5010486;28;20045;-39
2024/04/07 02:08:45;;;;;;;8.25;1.75;;;;;;;18.73;72.72;101024.53;5010765;28;20041;-41
2024/04/07 02:11:10;;;;;;;6.93;1.88;;;;;;;18.66;72.45;101002.66;5011145;28;20030;-41
2024/04/07 02:13:35;;;;;;;4.50;1.75;;;;;;;18.70;71.79;101021.94;5010494;28;20153;-40
2024/04/07 02:16:02;;;;;;;4.95;1.67;;;;;;;18.53;72.28;101011.66;5010617;28;20068;-41
2024/04/07 02:18:27;;;;;;;8.18;1.80;;;;;;;18.55;71.45;101021.31;5010906;28;20041;-40
2024/04/07 02:20:53;;;;;;;6.15;1.40;;;;;;;18.58;70.64;101000.16;4992752;28;20049;-40
2024/04/07 02:23:19;;;;;;;4.78;1.67;;;;;;;18.81;69.86;101007.66;5010671;28;20503;-41
2024/04/07 02:25:46;;;;;;;10.55;1.88;;;;;;;19.09;68.87;100986.00;5010058;28;20128;-42
2024/04/07 02:28:12;;;;;;;3.40;1.45;;;;;;;18.88;68.80;100979.34;5010869;28;20042;-42
2024/04/07 02:30:38;;;;;;;5.18;1.52;;;;;;;19.07;68.11;100975.47;5010235;28;20084;-41
2024/04/07 02:33:04;;;;;;;6.22;1.40;;;;;;;18.97;68.23;100995.88;5010594;28;20042;-42
2024/04/07 02:35:31;;;;;;;4.55;1.38;;;;;;;18.86;68.39;100987.31;5010137;28;20081;-40
2024/04/07 02:37:57;;;;;;;6.03;1.60;;;;;;;18.92;67.54;100994.25;5010435;28;20030;-40
2024/04/07 02:40:22;;;;;;;4.25;1.38;;;;;;;18.64;68.57;100992.13;5010650;28;20033;-44
2024/04/07 02:42:48;;;;;;;5.35;1.35;;;;;;;18.94;67.51;101003.88;5009948;28;20149;-41
2024/04/07 02:48:04;;;;;;;;;;;;;;;18.82;67.39;101003.25;5012815;28;20053;-41
2024/04/07 02:50:30;;;;;;;3.42;1.42;;;;;;;18.99;66.34;101020.53;5011677;28;19913;-41
2024/04/07 02:52:55;;;;;;;3.35;1.23;;;;;;;18.51;67.88;101022.22;5010976;28;20249;-41
2024/04/07 02:55:20;;;;;;;6.35;1.10;;;;;;;18.43;67.77;101041.72;5012877;28;20030;-41
2024/04/07 02:57:46;;;;;;;3.47;1.20;;;;;;;18.67;66.26;101028.16;5011965;28;20118;-40
2024/04/07 03:00:13;;;;;;;3.50;1.10;;;;;;;18.62;65.98;101038.78;5010317;28;20499;-41
2024/04/07 03:02:43;;;;;;;10.48;1.45;;;;;;;19.02;64.56;101061.88;4992526;28;20418;-39
2024/04/07 03:05:08;;;;;;;3.60;1.30;;;;;;;18.29;66.59;101062.22;5009994;28;20085;-41
2024/04/07 03:07:38;;;;;;;2.97;1.10;;;;;;;18.76;65.29;101045.63;5009607;28;20042;-41
2024/04/07 03:10:06;;;;;;;2.85;1.17;;;;;;;18.64;64.51;101026.44;5009699;28;20471;-43
2024/04/07 03:12:32;;;;;;;5.80;1.30;;;;;;;18.76;64.22;101027.13;5009558;28;20087;-43
2024/04/07 03:15:01;;;;;;;3.10;1.08;;;;;;;19.13;63.04;101035.25;5010122;28;20133;-41
2024/04/07 03:17:26;;;;;;;3.30;1.00;;;;;;;19.03;62.91;101045.09;5010950;28;20087;-40
2024/04/07 03:19:52;;;;;;;5.15;1.20;;;;;;;19.10;62.63;101045.84;5010296;28;20037;-41
2024/04/07 03:22:17;;;;;;;4.85;1.13;;;;;;;19.03;62.54;101027.47;5010069;28;20030;-42
2024/04/07 03:24:43;;;;;;;4.97;1.05;;;;;;;18.89;63.10;101049.78;5009438;28;20038;-41
2024/04/07 03:27:08;;;;;;;3.90;1.20;;;;;;;18.89;62.40;101055.94;5009608;28;20065;-41
2024/04/07 03:29:33;;;;;;;4.05;1.02;;;;;;;19.01;61.73;101066.28;5009769;28;20129;-44
2024/04/07 03:31:59;;;;;;;3.75;1.10;;;;;;;19.04;61.44;101074.16;5010831;28;20032;-44
2024/04/07 03:34:24;;;;;;;4.65;1.30;;;;;;;19.12;61.45;101078.44;4992743;28;20040;-42
2024/04/07 03:36:50;;;;;;;3.60;0.90;;;;;;;18.77;61.69;101068.50;5009166;28;20061;-42
2024/04/07 03:39:16;;;;;;;2.33;0.90;;;;;;;18.87;61.61;101067.44;5009649;28;20056;-41
2024/04/07 03:41:42;;;;;;;2.25;0.90;;;;;;;19.04;60.87;101071.50;5009112;28;20072;-42
2024/04/07 03:44:08;;;;;;;5.18;0.93;;;;;;;18.90;61.08;101075.31;5009305;28;20049;-43
2024/04/07 03:46:33;;;;;;;5.53;0.95;;;;;;;18.98;60.87;101073.38;5009054;28;20110;-44
2024/04/07 03:48:59;;;;;;;2.85;1.00;;;;;;;18.89;60.74;101071.81;5009609;28;20065;-42
2024/04/07 03:51:24;;;;;;;3.15;0.90;;;;;;;18.72;61.53;101073.00;5009796;28;20415;-44
2024/04/07 03:53:49;;;;;;;2.53;1.00;;;;;;;18.71;60.99;101081.81;5009111;28;22006;-42
2024/04/07 03:56:15;;;;;;;3.10;0.80;;;;;;;19.06;60.37;101087.34;4991469;28;20036;-41
2024/04/07 03:58:40;;;;;;;4.65;1.00;;;;;;;18.92;60.70;101082.28;5008979;28;20070;-44
2024/04/07 04:01:05;;;;;;;2.63;0.90;;;;;;;18.95;60.26;101087.53;5009727;28;20485;-43
2024/04/07 04:03:31;;;;;;;4.82;1.08;;;;;;;18.97;60.37;101093.66;5009232;28;20068;-42
2024/04/07 04:05:56;;;;;;;3.75;1.00;;;;;;;18.94;60.69;101095.50;5009256;28;20033;-40
2024/04/07 04:08:21;;;;;;;4.47;1.00;;;;;;;18.67;61.43;101102.09;5009527;28;20065;-42
2024/04/07 04:10:47;;;;;;;3.92;1.02;;;;;;;18.65;61.82;101106.53;5008931;28;20038;-42
2024/04/07 04:13:12;;;;;;;3.83;1.08;;;;;;;18.97;60.91;101103.34;5009476;28;20034;-41
2024/04/07 04:15:38;;;;;;;2.00;0.90;;;;;;;18.85;61.33;101111.47;5008524;28;20034;-43
2024/04/07 04:18:05;;;;;;;3.38;0.90;;;;;;;18.75;60.80;101110.78;5009336;28;20057;-43
2024/04/07 04:20:31;;;;;;;3.72;0.90;;;;;;;18.88;61.12;101114.09;5009163;28;20041;-42
2024/04/07 04:22:57;;;;;;;3.50;1.20;;;;;;;18.37;62.39;101121.00;5010804;28;20142;-44
2024/04/07 04:25:26;;;;;;;3.75;0.90;;;;;;;18.80;61.31;101113.34;5013169;28;20045;-53
2024/04/07 04:27:52;;;;;;;3.22;1.00;;;;;;;18.77;61.72;101131.88;4990510;28;20038;-47
2024/04/07 04:30:17;;;;;;;3.70;0.95;;;;;;;18.52;62.74;101136.63;4993884;28;20038;-46
2024/04/07 04:32:42;;;;;;;3.33;1.08;;;;;;;18.45;62.61;101142.91;4993428;28;20038;-46
2024/04/07 04:35:10;;;;;;;3.33;1.00;;;;;;;18.77;61.65;101140.69;4993574;28;20485;-45
2024/04/07 04:37:35;;;;;;;3.60;1.10;;;;;;;18.29;62.70;101131.72;4993414;28;20038;-45
2024/04/07 04:40:00;;;;;;;3.25;1.05;;;;;;;18.61;61.89;101139.16;4991818;28;20034;-48
2024/04/07 04:42:26;;;;;;;3.95;1.00;;;;;;;18.56;62.34;101154.19;4993801;28;20529;-46
2024/04/07 04:44:51;;;;;;;2.92;1.20;;;;;;;18.51;61.69;101156.00;4992687;28;20034;-46
2024/04/07 04:47:16;;;;;;;6.05;1.20;;;;;;;18.41;62.61;101150.00;4993290;28;20080;-48
2024/04/07 04:49:42;;;;;;;2.55;1.00;;;;;;;18.68;61.57;101147.88;4992952;28;20044;-45
2024/04/07 04:52:07;;;;;;;2.72;0.95;;;;;;;18.23;63.35;101156.41;4993539;28;20054;-47
2024/04/07 04:54:32;;;;;;;5.97;1.00;;;;;;;18.31;63.36;101163.34;4992908;28;20039;-47
2024/04/07 04:56:58;;;;;;;3.83;1.10;;;;;;;18.27;63.38;101165.16;4993245;28;20026;-46
2024/04/07 04:59:23;;;;;;;2.20;1.05;;;;;;;17.98;64.06;101178.72;4993505;28;20030;-46
2024/04/07 05:01:48;;;;;;;4.18;1.25;;;;;;;18.32;62.94;101178.28;4993701;28;20031;-47
2024/04/07 05:04:14;;;;;;;4.70;1.20;;;;;;;18.28;63.57;101189.78;4993524;28;20508;-47
2024/04/07 05:06:40;;;;;;;4.07;1.30;;;;;;;18.12;64.22;101197.88;4992281;28;20130;-46
2024/04/07 05:09:05;;;;;;;5.35;1.42;;;;;;;18.31;63.63;101197.66;4992996;28;20409;-45
2024/04/07 05:11:30;;;;;;;3.15;1.10;;;;;;;18.05;64.44;101196.19;4993104;28;20030;-46
2024/04/07 05:13:56;;;;;;;7.05;1.30;;;;;;;17.90;65.25;101198.16;4992557;28;20488;-49
2024/04/07 05:16:22;;;;;;;6.10;1.38;;;;;;;18.06;65.05;101208.50;4991546;28;20501;-45
2024/04/07 05:18:48;;;;;;;5.55;1.35;;;;;;;18.13;64.31;101198.75;4992521;28;20030;-45
2024/04/07 05:21:14;;;;;;;6.97;1.20;;;;;;;17.83;65.95;101195.59;4992886;28;20029;-45
2024/04/07 05:23:40;;;;;;;4.90;1.60;;;;;;;17.99;65.60;101192.78;4992551;28;20088;-46
2024/04/07 05:26:13;;;;;;;3.15;1.00;;;;;;;18.12;64.95;101215.47;4992336;28;20074;-48
2024/04/07 05:28:39;;;;;;;4.70;1.40;;;;;;;18.13;64.63;101220.75;4992176;28;20042;-46
2024/04/07 05:31:10;;;;;;;5.82;1.23;;;;;;;18.19;64.87;101219.78;4992974;28;20088;-45
2024/04/07 05:33:36;;;;;;;4.55;1.40;;;;;;;18.28;64.15;101226.72;4992085;28;20732;-46
2024/04/07 05:36:01;;;;;;;4.57;1.40;;;;;;;18.34;63.84;101230.16;4992507;28;20049;-51
2024/04/07 05:38:26;;;;;;;4.93;1.20;;;;;;;18.47;63.82;101229.13;4992676;28;20034;-49
2024/04/07 05:40:57;;;;;;;4.65;1.25;;;;;;;18.41;64.22;101231.84;4992372;28;20041;-45
2024/04/07 05:43:22;;;;;;;3.10;1.00;;;;;;;18.67;62.88;101214.78;4992831;28;20037;-45
2024/04/07 05:45:48;;;;;;;8.13;1.45;;;;;;;18.75;62.88;101232.28;4992100;28;20038;-44
2024/04/07 05:48:13;;;;;;;5.18;1.35;;;;;;;18.58;63.62;101218.44;4992866;28;20038;-45
2024/04/07 05:50:38;;;;;;;2.38;1.10;;;;;;;18.81;63.13;101223.38;4992459;28;20065;-46
2024/04/07 05:53:03;;;;;;;4.07;1.58;;;;;;;19.04;62.46;101229.19;4992513;28;20030;-47
2024/04/07 05:55:29;;;;;;;5.47;1.30;;;;;;;18.85;63.31;101233.00;4992010;28;20027;-47
2024/04/07 05:57:54;;;;;;;6.43;1.33;;;;;;;19.02;62.47;101247.72;4990448;28;20121;-50
2024/04/07 06:00:19;;;;;;;3.60;1.20;;;;;;;18.61;63.60;101239.50;4992563;28;20062;-46
2024/04/07 06:02:45;;;;;;;5.03;1.48;;;;;;;18.73;62.73;101249.91;4992727;28;20146;-47
2024/04/07 06:05:10;;;;;;;4.03;1.15;;;;;;;19.14;62.27;101243.16;4992739;28;20073;-47
2024/04/07 06:07:35;;;;;;;3.35;1.30;;;;;;;18.56;64.25;101251.91;4992738;28;20048;-46
2024/04/07 06:10:01;;;;;;;3.88;1.20;;;;;;;18.89;62.69;101255.84;4992315;28;20092;-46
2024/04/07 06:12:26;;;;;;;3.40;1.10;;;;;;;18.66;63.63;101253.53;4992615;28;20416;-49
2024/04/07 06:14:51;;;;;;;5.57;1.50;;;;;;;18.39;63.49;101256.50;4990559;28;20129;-45
2024/04/07 06:17:17;;;;;;;5.65;1.20;;;;;;;18.99;62.60;101250.41;4992089;28;20105;-46
2024/04/07 06:19:43;;;;;;;2.38;1.08;;;;;;;18.34;63.72;101248.66;4991377;28;20038;-45
2024/04/07 06:22:08;;;;;;;3.83;1.20;;;;;;;18.77;63.06;101256.91;4991777;28;20050;-46
2024/04/07 06:24:34;;;;;;;3.65;1.10;;;;;;;18.95;62.19;101259.28;4991481;28;20031;-46
2024/04/07 06:26:59;;;;;;;3.08;1.08;;;;;;;19.02;62.19;101263.59;4990695;28;20124;-46
2024/04/07 06:29:25;;;;;;;4.18;1.23;;;;;;;19.04;61.45;101266.19;4991392;28;20053;-46
2024/04/07 06:31:50;;;;;;;3.72;1.20;;;;;;;19.13;61.97;101262.53;4991383;28;20994;-45
2024/04/07 06:34:15;;;;;;;4.15;1.27;;;;;;;18.60;63.23;101259.75;4991906;28;20034;-49
2024/04/07 06:36:41;;;;;;;5.60;1.20;;;;;;;19.12;63.57;101264.31;4991138;28;20513;-45
2024/04/07 06:39:07;;;;;;;5.95;1.20;;;;;;;20.23;58.90;101271.16;4991472;28;20404;-45
2024/04/07 06:41:34;;;;;;;2.63;1.10;;;;;;;20.86;55.00;101265.41;4991916;28;20122;-47
2024/04/07 06:44:00;;;;;;;3.40;1.20;;;;;;;21.37;54.37;101270.44;4991809;28;20035;-48
2024/04/07 06:46:25;;;;;;;3.53;1.30;;;;;;;21.47;52.46;101268.44;4991184;28;20061;-45
2024/04/07 06:48:50;;;;;;;2.75;1.20;;;;;;;21.05;53.39;101277.34;4991752;28;20042;-44
2024/04/07 06:51:16;;;;;;;3.63;1.30;;;;;;;20.84;54.35;101269.03;4990996;28;20066;-51
2024/04/07 06:53:41;;;;;;;3.20;1.10;;;;;;;21.10;53.76;101269.31;4991084;28;20040;-46
2024/04/07 06:56:07;;;;;;;2.80;1.10;;;;;;;22.07;51.31;101271.28;4991271;28;20096;-46
2024/04/07 06:58:32;;;;;;;3.72;1.00;;;;;;;22.01;51.06;101274.09;4990949;28;20105;-48
2024/04/07 07:01:00;;;;;;;3.13;1.10;;;;;;;21.62;51.31;101276.88;4992153;28;20042;-47
2024/04/07 07:03:26;;;;;;;2.80;1.10;;;;;;;22.13;50.44;101274.63;4992554;28;20505;-47
2024/04/07 07:05:51;;;;;;;3.53;1.10;;;;;;;23.42;47.88;101277.81;4991361;28;20050;-47
2024/04/07 07:08:16;;;;;;;2.90;1.20;;;;;;;22.81;47.30;101285.03;4992205;28;20045;-48
2024/04/07 07:10:59;;;;;;;2.28;1.00;;;;;;;23.53;46.92;101285.44;4990986;28;20126;-45
2024/04/07 07:13:25;;;;;;;2.47;1.00;;;;;;;23.59;46.36;101290.56;4990992;28;20057;-48
2024/04/07 07:15:51;;;;;;;5.13;1.35;;;;;;;23.13;47.03;101292.03;4990449;28;20169;-49
2024/04/07 07:18:16;;;;;;;3.42;1.20;;;;;;;22.91;47.24;101293.63;4991153;28;20517;-45
2024/04/07 07:20:41;;;;;;;5.45;1.25;;;;;;;21.97;50.67;101288.34;4990762;28;20039;-46
2024/04/07 07:23:07;;;;;;;4.00;1.27;;;;;;;22.11;49.09;101292.38;4991841;28;20061;-46
2024/04/07 07:25:32;;;;;;;8.15;1.23;;;;;;;21.85;50.52;101301.00;4991198;28;20034;-46
2024/04/07 07:27:57;;;;;;;4.18;1.20;;;;;;;21.42;51.78;101310.97;4991172;28;20026;-48
2024/04/07 07:30:22;;;;;;;6.18;1.40;;;;;;;22.11;52.07;101313.63;4991631;28;20556;-45
2024/04/07 07:32:49;;;;;;;4.60;1.33;;;;;;;21.57;52.71;101309.72;4990764;28;20066;-47
2024/04/07 07:35:15;;;;;;;4.07;1.45;;;;;;;21.41;52.51;101311.88;4991499;28;20030;-46
2024/04/07 07:37:40;;;;;;;3.80;1.30;;;;;;;21.30;53.90;101321.88;4989560;28;20097;-47
2024/04/07 07:40:07;;;;;;;4.80;1.20;;;;;;;21.47;52.68;101317.03;4991412;28;20068;-45
2024/04/07 07:42:32;;;;;;;5.35;1.20;;;;;;;22.46;51.46;101320.63;4991400;28;20072;-46
2024/04/07 07:44:58;;;;;;;4.55;1.20;;;;;;;23.39;48.47;101331.09;4991262;28;20065;-44
2024/04/07 07:47:23;;;;;;;6.18;1.48;;;;;;;23.41;46.91;101329.28;4990950;28;20041;-46
2024/04/07 07:49:48;;;;;;;3.58;1.30;;;;;;;23.69;46.10;101323.94;4991391;28;20038;-52
2024/04/07 07:52:14;;;;;;;3.90;1.30;;;;;;;22.64;49.21;101341.34;4992027;28;20036;-45
2024/04/07 07:54:40;;;;;;;6.15;1.27;;;;;;;21.67;50.81;101316.53;4991148;28;20129;-47
2024/04/07 07:57:05;;;;;;;3.65;1.30;;;;;;;20.55;53.37;101341.19;4991092;28;20516;-47
2024/04/07 07:59:30;;;;;;;5.45;1.45;;;;;;;20.96;51.88;101338.53;4995097;28;20078;-47
2024/04/07 08:01:55;;;;;;;4.82;1.35;;;;;;;20.52;54.11;101338.59;4994281;28;20412;-45
2024/04/07 08:04:21;;;;;;;5.75;1.40;;;;;;;20.44;54.34;101340.50;4992824;28;20046;-49
2024/04/07 08:06:46;;;;;;;5.43;1.35;;;;;;;20.88;54.45;101344.88;4993740;28;20112;-47
2024/04/07 08:09:11;;;;;;;4.65;1.30;;;;;;;21.41;52.55;101341.91;4994328;28;20353;-49
2024/04/07 08:11:37;;;;;;;4.70;1.30;;;;;;;21.40;51.82;101341.97;4993610;28;20038;-45
2024/04/07 08:14:02;;;;;;;4.85;1.35;;;;;;;20.97;52.61;101347.34;4994259;28;20034;-46
2024/04/07 08:16:27;;;;;;;3.55;1.40;;;;;;;20.30;54.03;101343.41;4994339;28;20050;-49
2024/04/07 08:18:52;;;;;;;5.88;1.60;;;;;;;20.77;53.31;101346.91;4994511;28;20039;-44
2024/04/07 08:21:18;;;;;;;5.57;1.33;;;;;;;21.25;52.05;101344.97;4994692;28;20037;-46
2024/04/07 08:23:43;;;;;;;6.40;1.65;;;;;;;21.08;51.88;101345.34;4994142;28;20513;-47
2024/04/07 08:26:08;;;;;;;5.43;1.30;;;;;;;20.71;50.70;101345.25;4993644;28;20054;-45
2024/04/07 08:28:34;;;;;;;5.18;1.20;;;;;;;20.86;50.32;101341.41;4993565;28;20041;-53
2024/04/07 08:30:59;;;;;;;5.65;1.40;;;;;;;20.10;50.84;101348.19;4993871;28;20030;-45
2024/04/07 08:33:24;;;;;;;7.38;1.23;;;;;;;19.98;50.52;101357.22;4993918;28;20145;-45
2024/04/07 08:35:50;;;;;;;5.22;1.30;;;;;;;20.17;49.94;101361.28;4993399;28;20031;-47
2024/04/07 08:38:15;;;;;;;5.55;1.30;;;;;;;20.05;50.76;101361.53;4993817;28;20244;-45
2024/04/07 08:40:41;;;;;;;5.53;1.33;;;;;;;20.46;50.33;101368.72;4993317;28;20516;-52
2024/04/07 08:43:07;;;;;;;4.28;1.23;;;;;;;20.07;52.96;101366.75;4993775;28;20401;-51
2024/04/07 08:45:33;;;;;;;5.13;1.30;;;;;;;20.44;53.32;101369.63;4993140;28;20046;-45
2024/04/07 08:48:00;;;;;;;3.70;1.40;;;;;;;20.67;52.52;101371.84;4993887;28;20042;-47
2024/04/07 08:50:26;;;;;;;6.00;1.40;;;;;;;21.08;52.54;101365.66;4993862;28;20031;-45
2024/04/07 08:52:55;;;;;;;6.00;1.63;;;;;;;21.02;52.29;101366.69;4993303;28;20046;-46
2024/04/07 08:55:22;;;;;;;6.50;1.58;;;;;;;20.60;53.87;101371.97;4993437;28;20058;-46
2024/04/07 08:57:49;;;;;;;5.35;1.40;;;;;;;20.75;53.19;101383.16;4993239;28;20046;-45
2024/04/07 09:00:16;;;;;;;4.05;1.70;;;;;;;20.48;53.22;101376.63;4993669;28;20030;-47
2024/04/07 09:02:41;;;;;;;3.53;1.45;;;;;;;20.18;53.69;101391.28;4992331;28;20042;-50
2024/04/07 09:05:06;;;;;;;3.63;1.30;;;;;;;20.46;51.78;101384.59;4993048;28;20101;-47
2024/04/07 09:07:32;;;;;;;3.95;1.25;;;;;;;20.64;50.25;101378.06;4992675;28;20038;-45
2024/04/07 09:09:57;;;;;;;5.00;1.42;;;;;;;20.29;50.43;101384.03;4992413;28;20071;-46
2024/04/07 09:12:23;;;;;;;4.38;1.30;;;;;;;20.20;49.78;101385.06;4993471;28;20493;-48
2024/04/07 09:14:52;;;;;;;9.25;1.40;;;;;;;19.75;50.16;101392.03;4993383;28;20038;-51
2024/04/07 09:17:17;;;;;;;5.72;1.30;;;;;;;20.35;47.78;101388.38;4993523;28;20034;-49
2024/04/07 09:19:43;;;;;;;4.85;1.10;;;;;;;20.80;47.97;101379.50;4993235;28;20097;-45
2024/04/07 09:22:08;;;;;;;5.82;1.30;;;;;;;21.39;46.94;101385.31;4993134;28;20493;-50
2024/04/07 09:24:35;;;;;;;6.85;1.40;;;;;;;21.65;46.30;101396.19;4992818;28;20093;-48
2024/04/07 09:27:05;;;;;;;3.38;1.40;;;;;;;21.25;47.23;101390.94;4992657;28;20038;-48
2024/04/07 09:29:31;;;;;;;5.88;1.63;;;;;;;21.40;45.62;101403.00;4993386;28;20661;-49
2024/04/07 09:31:58;;;;;;;5.00;1.85;;;;;;;21.45;44.98;101399.31;4993210;28;20375;-47
2024/04/07 09:34:23;;;;;;;6.88;1.60;;;;;;;21.76;43.62;101401.25;4992979;28;20031;-44
2024/04/07 09:36:49;;;;;;;5.72;1.60;;;;;;;21.35;44.72;101391.59;4992414;28;20100;-50
2024/04/07 09:39:14;;;;;;;5.07;1.50;;;;;;;21.20;45.57;101399.91;4992923;28;20493;-46
2024/04/07 09:41:43;;;;;;;4.93;1.73;;;;;;;21.07;46.70;101401.91;4992716;28;20489;-48
2024/04/07 09:44:10;;;;;;;4.40;1.80;;;;;;;21.08;46.32;101406.31;4992839;28;20030;-44
2024/04/07 09:46:40;;;;;;;4.22;1.70;;;;;;;21.04;46.85;101410.78;4992789;28;20065;-51
2024/04/07 09:49:09;;;;;;;4.45;1.67;;;;;;;21.44;44.36;101400.22;4994214;28;20034;-47
2024/04/07 09:51:52;;;;;;;5.55;1.63;;;;;;;21.39;43.59;101399.47;4992685;28;20118;-46
2024/04/07 09:54:40;;;;;;;5.87;1.50;;;;;;;21.66;43.84;101403.22;4992851;28;20117;-49
2024/04/07 09:57:09;;;;;;;5.13;1.58;;;;;;;21.68;43.46;101404.09;4991863;28;20034;-46
2024/04/07 09:59:37;;;;;;;4.97;1.80;;;;;;;21.64;44.01;101399.75;4992150;28;20050;-46
2024/04/07 10:02:03;;;;;;;4.18;1.63;;;;;;;22.23;42.81;101394.75;4992378;28;20034;-44
2024/04/07 10:04:29;;;;;;;3.83;1.40;;;;;;;21.74;44.15;101403.06;4992284;28;20084;-47
2024/04/07 10:06:55;;;;;;;4.80;1.35;;;;;;;22.46;42.47;101407.41;4991294;28;20065;-48
2024/04/07 10:09:22;;;;;;;4.90;1.38;;;;;;;22.79;42.75;101408.31;4992058;28;20030;-47
2024/04/07 10:11:48;;;;;;;4.03;1.30;;;;;;;21.97;42.84;101405.16;4991844;28;20493;-45
2024/04/07 10:14:17;;;;;;;4.63;1.50;;;;;;;22.36;41.81;101411.25;4992701;28;20138;-44
2024/04/07 10:16:49;;;;;;;5.43;1.50;;;;;;;21.71;44.03;101427.03;4991740;28;20042;-45
2024/04/07 10:19:15;;;;;;;4.43;1.27;;;;;;;21.63;43.88;101418.38;4992165;28;20135;-46
2024/04/07 10:21:41;;;;;;;5.85;1.30;;;;;;;21.36;42.61;101403.94;4990438;28;20573;-45
2024/04/07 10:24:07;;;;;;;4.97;1.10;;;;;;;21.42;42.64;101414.41;4991811;28;20035;-44
2024/04/07 10:26:32;;;;;;;4.65;1.10;;;;;;;21.70;42.88;101412.00;4991829;28;20038;-46
2024/04/07 10:28:58;;;;;;;4.93;1.30;;;;;;;21.41;43.32;101425.94;4991860;28;20065;-46
2024/04/07 10:31:29;;;;;;;3.13;1.20;;;;;;;21.67;42.98;101414.72;4991893;28;20030;-51
2024/04/07 10:33:55;;;;;;;4.57;1.25;;;;;;;21.33;43.50;101418.16;4991149;28;20105;-46
2024/04/07 10:36:22;;;;;;;5.63;1.30;;;;;;;21.94;42.88;101411.41;4991168;28;20034;-48
2024/04/07 10:38:51;;;;;;;3.72;1.27;;;;;;;21.97;43.17;101402.50;4991188;28;20039;-52
2024/04/07 10:41:23;;;;;;;4.45;1.35;;;;;;;21.66;42.52;101410.31;4990169;28;20038;-46
2024/04/07 10:43:49;;;;;;;4.28;1.20;;;;;;;21.89;42.27;101412.44;4991097;28;20404;-46
2024/04/07 10:46:17;;;;;;;3.47;1.05;;;;;;;21.79;41.44;101411.78;4991153;28;20030;-48
2024/04/07 10:48:43;;;;;;;7.18;1.55;;;;;;;21.26;43.06;101415.69;4991079;28;20034;-45
2024/04/07 10:51:09;;;;;;;6.13;1.30;;;;;;;21.69;42.26;101418.22;4991446;28;20034;-46
2024/04/07 10:53:36;;;;;;;4.80;0.93;;;;;;;21.40;42.47;101419.78;4990868;28;20039;-45
2024/04/07 10:56:01;;;;;;;3.63;1.00;;;;;;;22.01;41.37;101413.03;4990849;28;20042;-46
2024/04/07 10:58:27;;;;;;;3.80;0.82;;;;;;;22.02;39.18;101413.88;4991107;28;20043;-45
2024/04/07 11:00:52;;;;;;;4.25;1.15;;;;;;;21.83;37.41;101405.50;4990924;28;20117;-47
2024/04/07 11:03:17;;;;;;;3.72;0.85;;;;;;;22.10;37.69;101419.88;4991757;28;20037;-47
2024/04/07 11:05:43;;;;;;;1.90;0.60;;;;;;;22.33;35.03;101398.91;4990798;28;20034;-47
2024/04/07 11:08:10;;;;;;;5.03;0.80;;;;;;;22.39;34.51;101406.72;4991792;28;20030;-47
2024/04/07 11:10:37;;;;;;;4.50;1.00;;;;;;;22.11;33.74;101411.00;4990616;28;20119;-49
2024/04/07 11:13:04;;;;;;;3.50;0.88;;;;;;;22.44;34.11;101410.13;4991109;28;20096;-47
2024/04/07 11:15:30;;;;;;;3.80;0.88;;;;;;;21.88;34.19;101421.31;4990859;28;20575;-47
2024/04/07 11:18:00;;;;;;;3.38;0.90;;;;;;;21.66;34.86;101402.34;4990639;28;20069;-47
2024/04/07 11:20:26;;;;;;;3.05;0.90;;;;;;;21.85;34.42;101406.31;4990803;28;20027;-46
2024/04/07 11:22:52;;;;;;;4.15;0.90;;;;;;;21.43;35.47;101411.75;4990157;28;20050;-48